Share

Platinum, AK (99651)

Platinum (PAPM) Alt. 16 ft | 59.01 °N, 161.82 °W | Change Station

Current weather conditions updated 4 minutes ago

Mostly Cloudy
Nuageux
34 ° F
Paraît 30 ° F
N
5
Vent Variable Vent de OSO
Lever du soleil 7:26 AM
Coucher du soleil 10:05 PM
Lune Lune gibbeuse décroissante

Demain il est prévu de faire pratiquement la même température qu’aujourd’hui. Neige dans la matinée..

Pression 29.41 pouce
Visibilité 4.0 Miles terrestres
Nuages Peu 400 ft
Nuageux 1400 ft
Nuageux 8500 ft
Refroidissement éolien 30 ° F
Point de rosée 34 ° F
Humidité 100%
Précipitations 0.00 pouce
Profondeur de la couche neigeuse Non disponible.
UV 3 sur 16
Pollen Non disponible.
Qualité de l'air Non disponible.
Flu Activity Sporadic
SPECI PAPM 180019Z AUTO 25004KT 4SM UP BR FEW004 BKN014 BKN085 01/01 A2941 RMK AO2 TSNO BKN V OVC UPB03 P0002 $

More Conditions Fewer Conditions

Pression 29.41 pouce
Visibilité 4.0 Miles terrestres
Nuages Peu 400 ft
Nuageux 1400 ft
Nuageux 8500 ft
Refroidissement éolien 30 ° F
Point de rosée 34 ° F
Humidité 100%
Précipitations 0.00 pouce
Profondeur de la couche neigeuse Non disponible.
UV 3 sur 16
Pollen Non disponible.
Qualité de l'air Non disponible.
Flu Activity Sporadic
SPECI PAPM 180019Z AUTO 25004KT 4SM UP BR FEW004 BKN014 BKN085 01/01 A2941 RMK AO2 TSNO BKN V OVC UPB03 P0002 $

More Conditions Fewer Conditions

10-Day Forecast

Almanac

Astronomie

Apr. 17, 2014 Lever Coucher
Temps réel 07:26 AKDT 22:05 AKDT
Crépuscule civil 06:41 AKDT 22:50 AKDT
Crépuscule nautique 05:42 AKDT 23:51 AKDT
Crépuscule astronomique 04:21 AKDT 01:15 AKDT
Lune 00:23 AKDT (4/17) 08:41 AKDT (4/17)
Durée de lumière visible 16h 09m
Longueur du jour
14h 39m
Tomorrow will be 5m 6s longer.
Lune gibbeuse décroissante, 92% of the Moon is Illuminated
Aujourd'hui
Lune gibbeuse décroissante
avr 22
Dernier quartier
avr 29
Nouveau
mai 6
Premier quartier
mai 14
Pleine lune

Extrêmes aujourd'hui

State Highs State Lows

Community

  • Morning Light
    Morning Light
  • New Day
    New Day
  • Lake Michigan Sunrise
    Lake Michigan Sunrise
  • sunset from izmir, narlıdere
    sunset from izmir, narlıdere
  • oregon cherry
    oregon cherry

WunderPhotos

Upload Photos

1,702,187 Photos téléchargées !

WunderBlogs® & News

Nearby

Qualité de l'air

Not available.

Épaisseur de neige

Station Depth Altitude
Port Graham 9 in 300 ft
Mcneil Canyon 11 in 1320 ft
MF Bradley River 21 in 2300 ft
Rocky Point 6 in 500 ft
Nuka Glacier 32 in 1250 ft

Températures des eaux côtières

Lieu Température
Aucun rapport de station

Activité sismique

Ville Distance Mag. Time & Date
No recent earthquake activity has been reported nearby.
Minimum magnitude displayed is 2.5.

Stations météo à proximité

Il n'y a aucune station météorologique personnelle dans cette zone.

What do you think?

We're not finished. Please let us know what you like, what you don't like, and what you are still missing.